sensor_id;sensor_type;location;lat;lon;timestamp;pressure;altitude;pressure_sealevel;temperature;humidity
59859;BME280;45734;53.648;9.566;2023-03-26T00:01:55;53835.69;;;-145.06;100.00
59859;BME280;45734;53.648;9.566;2023-03-26T00:06:57;53841.75;;;-145.06;100.00
59859;BME280;45734;53.648;9.566;2023-03-26T00:11:57;53868.09;;;-145.06;100.00
59859;BME280;45734;53.648;9.566;2023-03-26T00:16:57;53853.91;;;-145.06;100.00
59859;BME280;45734;53.648;9.566;2023-03-26T00:21:57;53813.41;;;-145.06;100.00
59859;BME280;45734;53.648;9.566;2023-03-26T00:26:58;53815.44;;;-145.06;100.00
59859;BME280;45734;53.648;9.566;2023-03-26T00:31:58;53839.72;;;-145.06;100.00
59859;BME280;45734;53.648;9.566;2023-03-26T00:36:58;53819.47;;;-145.06;100.00
59859;BME280;45734;53.648;9.566;2023-03-26T00:42:01;53884.28;;;-145.06;100.00
59859;BME280;45734;53.648;9.566;2023-03-26T00:47:05;53855.94;;;-145.06;100.00
59859;BME280;45734;53.648;9.566;2023-03-26T00:52:06;53831.63;;;-145.06;100.00
59859;BME280;45734;53.648;9.566;2023-03-26T00:57:07;53833.66;;;-145.06;100.00
59859;BME280;45734;53.648;9.566;2023-03-26T01:02:11;53803.28;;;-145.06;100.00
59859;BME280;45734;53.648;9.566;2023-03-26T01:07:16;53845.81;;;-145.06;100.00
59859;BME280;45734;53.648;9.566;2023-03-26T01:12:21;53892.38;;;-145.06;100.00
59859;BME280;45734;53.648;9.566;2023-03-26T01:17:22;53835.69;;;-145.06;100.00
59859;BME280;45734;53.648;9.566;2023-03-26T01:22:23;53855.94;;;-145.06;100.00
59859;BME280;45734;53.648;9.566;2023-03-26T01:43:04;53837.72;;;-145.06;100.00
59859;BME280;45734;53.648;9.566;2023-03-26T01:48:07;53874.16;;;-145.06;100.00
59859;BME280;45734;53.648;9.566;2023-03-26T01:53:08;53835.69;;;-145.06;100.00
59859;BME280;45734;53.648;9.566;2023-03-26T02:03:30;53837.72;;;-145.06;100.00
59859;BME280;45734;53.648;9.566;2023-03-26T02:08:37;53855.94;;;-145.06;100.00
59859;BME280;45734;53.648;9.566;2023-03-26T02:13:41;53831.63;;;-145.06;100.00
59859;BME280;45734;53.648;9.566;2023-03-26T02:18:42;53819.47;;;-145.06;100.00
59859;BME280;45734;53.648;9.566;2023-03-26T02:23:44;53831.63;;;-145.06;100.00
59859;BME280;45734;53.648;9.566;2023-03-26T02:28:48;53884.28;;;-145.06;100.00
59859;BME280;45734;53.648;9.566;2023-03-26T02:33:48;53811.38;;;-145.06;100.00
59859;BME280;45734;53.648;9.566;2023-03-26T02:38:48;53845.81;;;-145.06;100.00
59859;BME280;45734;53.648;9.566;2023-03-26T02:43:48;53862.00;;;-145.06;100.00
59859;BME280;45734;53.648;9.566;2023-03-26T02:48:49;53855.94;;;-145.06;100.00
59859;BME280;45734;53.648;9.566;2023-03-26T02:53:49;53851.88;;;-145.06;100.00
59859;BME280;45734;53.648;9.566;2023-03-26T02:58:50;53827.59;;;-145.06;100.00
59859;BME280;45734;53.648;9.566;2023-03-26T03:03:50;53851.88;;;-145.06;100.00
59859;BME280;45734;53.648;9.566;2023-03-26T03:08:50;53835.69;;;-145.06;100.00
59859;BME280;45734;53.648;9.566;2023-03-26T03:13:52;53864.03;;;-145.06;100.00
59859;BME280;45734;53.648;9.566;2023-03-26T03:18:53;53855.94;;;-145.06;100.00
59859;BME280;45734;53.648;9.566;2023-03-26T03:23:55;53827.59;;;-145.06;100.00
59859;BME280;45734;53.648;9.566;2023-03-26T03:28:56;53847.84;;;-145.06;100.00
59859;BME280;45734;53.648;9.566;2023-03-26T03:33:57;53831.63;;;-145.06;100.00
59859;BME280;45734;53.648;9.566;2023-03-26T03:38:57;53866.06;;;-145.06;100.00
59859;BME280;45734;53.648;9.566;2023-03-26T03:44:01;53849.84;;;-145.06;100.00
59859;BME280;45734;53.648;9.566;2023-03-26T03:49:01;53835.69;;;-145.06;100.00
59859;BME280;45734;53.648;9.566;2023-03-26T03:54:01;53831.63;;;-145.06;100.00
59859;BME280;45734;53.648;9.566;2023-03-26T03:59:02;53835.69;;;-145.06;100.00
59859;BME280;45734;53.648;9.566;2023-03-26T04:04:02;53831.63;;;-145.06;100.00
59859;BME280;45734;53.648;9.566;2023-03-26T04:09:03;53868.09;;;-145.06;100.00
59859;BME280;45734;53.648;9.566;2023-03-26T04:14:03;53855.94;;;-145.06;100.00
59859;BME280;45734;53.648;9.566;2023-03-26T04:19:03;53853.91;;;-145.06;100.00
59859;BME280;45734;53.648;9.566;2023-03-26T04:24:04;53839.72;;;-145.06;100.00
59859;BME280;45734;53.648;9.566;2023-03-26T04:29:06;53851.88;;;-145.06;100.00
59859;BME280;45734;53.648;9.566;2023-03-26T04:34:14;53839.72;;;-145.06;100.00
59859;BME280;45734;53.648;9.566;2023-03-26T04:39:17;53839.72;;;-145.06;100.00
59859;BME280;45734;53.648;9.566;2023-03-26T04:44:17;53847.84;;;-145.06;100.00
59859;BME280;45734;53.648;9.566;2023-03-26T04:49:21;53862.00;;;-145.06;100.00
59859;BME280;45734;53.648;9.566;2023-03-26T04:54:21;53866.06;;;-145.06;100.00
59859;BME280;45734;53.648;9.566;2023-03-26T04:59:27;53845.81;;;-145.06;100.00
59859;BME280;45734;53.648;9.566;2023-03-26T05:04:29;53831.63;;;-145.06;100.00
59859;BME280;45734;53.648;9.566;2023-03-26T05:09:29;53837.72;;;-145.06;100.00
59859;BME280;45734;53.648;9.566;2023-03-26T05:14:30;53847.84;;;-145.06;100.00
59859;BME280;45734;53.648;9.566;2023-03-26T05:19:31;53864.03;;;-145.06;100.00
59859;BME280;45734;53.648;9.566;2023-03-26T05:24:31;53866.06;;;-145.06;100.00
59859;BME280;45734;53.648;9.566;2023-03-26T05:29:31;53890.38;;;-145.06;100.00
59859;BME280;45734;53.648;9.566;2023-03-26T05:34:31;53868.09;;;-145.06;100.00
59859;BME280;45734;53.648;9.566;2023-03-26T05:39:32;53841.75;;;-145.06;100.00
59859;BME280;45734;53.648;9.566;2023-03-26T05:44:32;53862.00;;;-145.06;100.00
59859;BME280;45734;53.648;9.566;2023-03-26T05:49:32;53833.66;;;-145.06;100.00
59859;BME280;45734;53.648;9.566;2023-03-26T05:54:33;53823.53;;;-145.06;100.00
59859;BME280;45734;53.648;9.566;2023-03-26T05:59:33;53839.72;;;-145.06;100.00
59859;BME280;45734;53.648;9.566;2023-03-26T06:04:33;53835.69;;;-145.06;100.00
59859;BME280;45734;53.648;9.566;2023-03-26T06:09:33;53809.34;;;-145.06;100.00
59859;BME280;45734;53.648;9.566;2023-03-26T06:14:34;53827.59;;;-145.06;100.00
59859;BME280;45734;53.648;9.566;2023-03-26T06:19:34;53795.19;;;-145.06;100.00
59859;BME280;45734;53.648;9.566;2023-03-26T06:24:34;53829.59;;;-145.06;100.00
59859;BME280;45734;53.648;9.566;2023-03-26T06:29:35;53853.91;;;-145.06;100.00
59859;BME280;45734;53.648;9.566;2023-03-26T06:34:35;53841.75;;;-145.06;100.00
59859;BME280;45734;53.648;9.566;2023-03-26T06:39:35;53825.56;;;-145.06;100.00
59859;BME280;45734;53.648;9.566;2023-03-26T06:44:35;53833.66;;;-145.06;100.00
59859;BME280;45734;53.648;9.566;2023-03-26T06:49:36;53803.28;;;-145.06;100.00
59859;BME280;45734;53.648;9.566;2023-03-26T06:54:37;53697.97;;;-145.06;100.00
59859;BME280;45734;53.648;9.566;2023-03-26T06:59:37;53793.16;;;-145.06;100.00
59859;BME280;45734;53.648;9.566;2023-03-26T07:04:37;53819.47;;;-145.06;100.00
59859;BME280;45734;53.648;9.566;2023-03-26T07:09:37;53803.28;;;-145.06;100.00
59859;BME280;45734;53.648;9.566;2023-03-26T07:14:38;53817.47;;;-145.06;100.00
59859;BME280;45734;53.648;9.566;2023-03-26T07:19:38;53817.47;;;-145.06;100.00
59859;BME280;45734;53.648;9.566;2023-03-26T07:24:38;53851.88;;;-145.06;100.00
59859;BME280;45734;53.648;9.566;2023-03-26T07:34:45;53797.22;;;-145.06;100.00
59859;BME280;45734;53.648;9.566;2023-03-26T07:45:16;53809.34;;;-145.06;100.00
59859;BME280;45734;53.648;9.566;2023-03-26T07:50:19;53766.81;;;-145.06;100.00
59859;BME280;45734;53.648;9.566;2023-03-26T07:55:20;53811.38;;;-145.06;100.00
59859;BME280;45734;53.648;9.566;2023-03-26T08:00:23;53793.16;;;-145.06;100.00
59859;BME280;45734;53.648;9.566;2023-03-26T08:05:26;53793.16;;;-145.06;100.00
59859;BME280;45734;53.648;9.566;2023-03-26T08:20:49;53815.44;;;-145.06;100.00
59859;BME280;45734;53.648;9.566;2023-03-26T08:25:52;53766.81;;;-145.06;97.13
59859;BME280;45734;53.648;9.566;2023-03-26T08:30:58;53803.28;;;-145.06;96.85
59859;BME280;45734;53.648;9.566;2023-03-26T08:36:01;53776.94;;;-145.06;100.00
59859;BME280;45734;53.648;9.566;2023-03-26T09:27:35;53758.72;;;-145.06;85.26
59859;BME280;45734;53.648;9.566;2023-03-26T09:32:47;53762.78;;;-145.06;75.56
59859;BME280;45734;53.648;9.566;2023-03-26T09:48:07;53728.34;;;-145.06;89.17
59859;BME280;45734;53.648;9.566;2023-03-26T09:58:32;53742.53;;;-145.06;88.70
59859;BME280;45734;53.648;9.566;2023-03-26T10:09:04;53778.97;;;-145.06;84.78
59859;BME280;45734;53.648;9.566;2023-03-26T10:19:22;53691.91;;;-145.06;89.17
59859;BME280;45734;53.648;9.566;2023-03-26T10:39:49;53750.63;;;-145.06;83.75
59859;BME280;45734;53.648;9.566;2023-03-26T10:55:15;53764.81;;;-145.06;82.34
59859;BME280;45734;53.648;9.566;2023-03-26T11:00:18;53738.47;;;-145.06;78.40
59859;BME280;45734;53.648;9.566;2023-03-26T11:05:32;53772.91;;;-145.06;85.46
59859;BME280;45734;53.648;9.566;2023-03-26T11:26:14;53742.53;;;-145.06;86.21
59859;BME280;45734;53.648;9.566;2023-03-26T11:31:18;53756.69;;;-145.06;81.43
59859;BME280;45734;53.648;9.566;2023-03-26T11:36:24;53760.75;;;-145.06;77.22
59859;BME280;45734;53.648;9.566;2023-03-26T11:41:28;53762.78;;;-145.06;80.78
59859;BME280;45734;53.648;9.566;2023-03-26T11:46:30;53734.44;;;-145.06;79.70
59859;BME280;45734;53.648;9.566;2023-03-26T11:51:32;53766.81;;;-145.06;73.20
59859;BME280;45734;53.648;9.566;2023-03-26T12:01:50;53768.84;;;-145.06;74.89
59859;BME280;45734;53.648;9.566;2023-03-26T12:06:58;53746.56;;;-145.06;76.76
59859;BME280;45734;53.648;9.566;2023-03-26T12:12:03;53766.81;;;-145.06;86.71
59859;BME280;45734;53.648;9.566;2023-03-26T12:17:06;53776.94;;;-145.06;85.26
59859;BME280;45734;53.648;9.566;2023-03-26T12:27:28;53783.03;;;-145.06;76.20
59859;BME280;45734;53.648;9.566;2023-03-26T12:32:30;53704.06;;;-145.06;82.15
59859;BME280;45734;53.648;9.566;2023-03-26T12:37:36;53740.50;;;-145.06;76.26
59859;BME280;45734;53.648;9.566;2023-03-26T12:42:38;53811.38;;;-145.06;81.61
59859;BME280;45734;53.648;9.566;2023-03-26T12:47:39;53726.31;;;-145.06;84.16
59859;BME280;45734;53.648;9.566;2023-03-26T12:52:48;53768.84;;;-145.06;87.39
59859;BME280;45734;53.648;9.566;2023-03-26T12:57:56;53766.81;;;-145.06;85.43
59859;BME280;45734;53.648;9.566;2023-03-26T13:18:18;53754.69;;;-145.06;82.67
59859;BME280;45734;53.648;9.566;2023-03-26T13:28:29;53738.47;;;-145.06;83.77
59859;BME280;45734;53.648;9.566;2023-03-26T13:33:38;53736.44;;;-145.06;80.89
59859;BME280;45734;53.648;9.566;2023-03-26T13:38:52;53714.19;;;-145.06;83.65
59859;BME280;45734;53.648;9.566;2023-03-26T13:44:03;53720.25;;;-145.06;78.58
59859;BME280;45734;53.648;9.566;2023-03-26T13:49:11;53728.34;;;-145.06;80.23
59859;BME280;45734;53.648;9.566;2023-03-26T13:59:52;53718.22;;;-145.06;85.10
59859;BME280;45734;53.648;9.566;2023-03-26T14:10:16;53770.88;;;-145.06;88.61
59859;BME280;45734;53.648;9.566;2023-03-26T14:15:20;53714.19;;;-145.06;89.26
59859;BME280;45734;53.648;9.566;2023-03-26T14:30:54;53722.28;;;-145.06;89.09
59859;BME280;45734;53.648;9.566;2023-03-26T14:35:59;53764.81;;;-145.06;92.54
59859;BME280;45734;53.648;9.566;2023-03-26T15:12:12;53742.53;;;-145.06;76.97
59859;BME280;45734;53.648;9.566;2023-03-26T15:38:12;53744.56;;;-145.06;84.55
59859;BME280;45734;53.648;9.566;2023-03-26T15:43:19;53738.47;;;-145.06;84.17
59859;BME280;45734;53.648;9.566;2023-03-26T15:48:23;53746.56;;;-145.06;82.92
59859;BME280;45734;53.648;9.566;2023-03-26T15:58:55;53758.72;;;-145.06;79.70
59859;BME280;45734;53.648;9.566;2023-03-26T16:04:03;53754.69;;;-145.06;77.77
59859;BME280;45734;53.648;9.566;2023-03-26T16:25:11;53781.00;;;-145.06;84.05
59859;BME280;45734;53.648;9.566;2023-03-26T16:30:30;53738.47;;;-145.06;87.36
59859;BME280;45734;53.648;9.566;2023-03-26T16:41:14;53783.03;;;-145.06;98.05
59859;BME280;45734;53.648;9.566;2023-03-26T16:46:19;53795.19;;;-145.06;100.00
59859;BME280;45734;53.648;9.566;2023-03-26T16:56:59;53734.44;;;-145.06;100.00
59859;BME280;45734;53.648;9.566;2023-03-26T17:02:25;53758.72;;;-145.06;100.00
59859;BME280;45734;53.648;9.566;2023-03-26T17:07:28;53760.75;;;-145.06;100.00
59859;BME280;45734;53.648;9.566;2023-03-26T17:17:39;53750.63;;;-145.06;100.00
59859;BME280;45734;53.648;9.566;2023-03-26T17:22:46;53778.97;;;-145.06;100.00
59859;BME280;45734;53.648;9.566;2023-03-26T17:51:38;53776.94;;;-145.06;100.00
59859;BME280;45734;53.648;9.566;2023-03-26T17:56:40;53726.31;;;-145.06;100.00
59859;BME280;45734;53.648;9.566;2023-03-26T18:01:42;53774.94;;;-145.06;100.00
59859;BME280;45734;53.648;9.566;2023-03-26T18:12:05;53783.03;;;-145.06;100.00
59859;BME280;45734;53.648;9.566;2023-03-26T18:17:12;53791.13;;;-145.06;100.00
59859;BME280;45734;53.648;9.566;2023-03-26T18:22:22;53754.69;;;-145.06;100.00
59859;BME280;45734;53.648;9.566;2023-03-26T18:27:25;53781.00;;;-145.06;100.00
59859;BME280;45734;53.648;9.566;2023-03-26T18:32:30;53787.06;;;-145.06;100.00
59859;BME280;45734;53.648;9.566;2023-03-26T18:37:34;53744.56;;;-145.06;100.00
59859;BME280;45734;53.648;9.566;2023-03-26T18:42:35;53746.56;;;-145.06;100.00
59859;BME280;45734;53.648;9.566;2023-03-26T18:47:36;53754.69;;;-145.06;100.00
59859;BME280;45734;53.648;9.566;2023-03-26T18:52:37;53797.22;;;-145.06;100.00
59859;BME280;45734;53.648;9.566;2023-03-26T18:57:37;53776.94;;;-145.06;100.00
59859;BME280;45734;53.648;9.566;2023-03-26T19:02:38;53768.84;;;-145.06;100.00
59859;BME280;45734;53.648;9.566;2023-03-26T19:07:38;53762.78;;;-145.06;100.00
59859;BME280;45734;53.648;9.566;2023-03-26T19:12:38;53774.94;;;-145.06;100.00
59859;BME280;45734;53.648;9.566;2023-03-26T19:17:42;53772.91;;;-145.06;100.00
59859;BME280;45734;53.648;9.566;2023-03-26T19:22:45;53754.69;;;-145.06;100.00
59859;BME280;45734;53.648;9.566;2023-03-26T19:27:46;53758.72;;;-145.06;100.00
59859;BME280;45734;53.648;9.566;2023-03-26T19:32:53;53778.97;;;-145.06;100.00
59859;BME280;45734;53.648;9.566;2023-03-26T19:37:54;53787.06;;;-145.06;100.00
59859;BME280;45734;53.648;9.566;2023-03-26T19:42:58;53795.19;;;-145.06;100.00
59859;BME280;45734;53.648;9.566;2023-03-26T19:47:59;53750.63;;;-145.06;100.00
59859;BME280;45734;53.648;9.566;2023-03-26T19:53:13;53778.97;;;-145.06;100.00
59859;BME280;45734;53.648;9.566;2023-03-26T19:58:16;53821.50;;;-145.06;100.00
59859;BME280;45734;53.648;9.566;2023-03-26T20:03:21;53785.06;;;-145.06;100.00
59859;BME280;45734;53.648;9.566;2023-03-26T20:08:23;53803.28;;;-145.06;100.00
59859;BME280;45734;53.648;9.566;2023-03-26T20:13:25;53778.97;;;-145.06;100.00
59859;BME280;45734;53.648;9.566;2023-03-26T20:18:26;53772.91;;;-145.06;100.00
59859;BME280;45734;53.648;9.566;2023-03-26T20:23:26;53754.69;;;-145.06;100.00
59859;BME280;45734;53.648;9.566;2023-03-26T20:28:27;53774.94;;;-145.06;100.00
59859;BME280;45734;53.648;9.566;2023-03-26T20:33:28;53772.91;;;-145.06;100.00
59859;BME280;45734;53.648;9.566;2023-03-26T20:38:28;53785.06;;;-145.06;100.00
59859;BME280;45734;53.648;9.566;2023-03-26T20:43:28;53754.69;;;-145.06;100.00
59859;BME280;45734;53.648;9.566;2023-03-26T20:48:29;53766.81;;;-145.06;100.00
59859;BME280;45734;53.648;9.566;2023-03-26T20:53:29;53762.78;;;-145.06;100.00
59859;BME280;45734;53.648;9.566;2023-03-26T20:58:29;53770.88;;;-145.06;100.00
59859;BME280;45734;53.648;9.566;2023-03-26T21:03:30;53793.16;;;-145.06;100.00
59859;BME280;45734;53.648;9.566;2023-03-26T21:08:31;53772.91;;;-145.06;100.00
59859;BME280;45734;53.648;9.566;2023-03-26T21:19:04;53791.13;;;-145.06;100.00
59859;BME280;45734;53.648;9.566;2023-03-26T21:29:28;53807.31;;;-145.06;100.00
59859;BME280;45734;53.648;9.566;2023-03-26T21:34:29;53778.97;;;-145.06;100.00
59859;BME280;45734;53.648;9.566;2023-03-26T21:39:32;53781.00;;;-145.06;100.00
59859;BME280;45734;53.648;9.566;2023-03-26T21:44:33;53742.53;;;-145.06;100.00
59859;BME280;45734;53.648;9.566;2023-03-26T21:49:33;53766.81;;;-145.06;100.00
59859;BME280;45734;53.648;9.566;2023-03-26T21:54:34;53781.00;;;-145.06;100.00
59859;BME280;45734;53.648;9.566;2023-03-26T22:04:55;53742.53;;;-145.06;100.00
59859;BME280;45734;53.648;9.566;2023-03-26T22:09:56;53770.88;;;-145.06;100.00
59859;BME280;45734;53.648;9.566;2023-03-26T22:14:57;53748.59;;;-145.06;100.00
59859;BME280;45734;53.648;9.566;2023-03-26T22:19:57;53756.69;;;-145.06;100.00
59859;BME280;45734;53.648;9.566;2023-03-26T22:25:00;53748.59;;;-145.06;100.00
59859;BME280;45734;53.648;9.566;2023-03-26T22:30:00;53768.84;;;-145.06;100.00
59859;BME280;45734;53.648;9.566;2023-03-26T22:35:01;53781.00;;;-145.06;100.00
59859;BME280;45734;53.648;9.566;2023-03-26T22:40:05;53764.81;;;-145.06;100.00
59859;BME280;45734;53.648;9.566;2023-03-26T22:45:08;53750.63;;;-145.06;100.00
59859;BME280;45734;53.648;9.566;2023-03-26T22:50:09;53770.88;;;-145.06;100.00
59859;BME280;45734;53.648;9.566;2023-03-26T22:55:10;53823.53;;;-145.06;100.00
59859;BME280;45734;53.648;9.566;2023-03-26T23:00:11;53795.19;;;-145.06;100.00
59859;BME280;45734;53.648;9.566;2023-03-26T23:05:21;53793.16;;;-145.06;100.00
59859;BME280;45734;53.648;9.566;2023-03-26T23:10:22;53821.50;;;-145.06;100.00
59859;BME280;45734;53.648;9.566;2023-03-26T23:15:23;53807.31;;;-145.06;100.00
59859;BME280;45734;53.648;9.566;2023-03-26T23:20:24;53787.06;;;-145.06;100.00
59859;BME280;45734;53.648;9.566;2023-03-26T23:25:26;53795.19;;;-145.06;100.00
59859;BME280;45734;53.648;9.566;2023-03-26T23:30:27;53827.59;;;-145.06;100.00
59859;BME280;45734;53.648;9.566;2023-03-26T23:35:27;53764.81;;;-145.06;100.00
59859;BME280;45734;53.648;9.566;2023-03-26T23:40:28;53770.88;;;-145.06;100.00
59859;BME280;45734;53.648;9.566;2023-03-26T23:45:28;53748.59;;;-145.06;100.00
59859;BME280;45734;53.648;9.566;2023-03-26T23:50:30;53791.13;;;-145.06;100.00
59859;BME280;45734;53.648;9.566;2023-03-26T23:55:30;53778.97;;;-145.06;100.00
